createdAt,value
2023-04-17T00:00:26.336Z,34
2023-04-17T00:01:26.742Z,31.60
2023-04-17T00:02:23.436Z,33.40
2023-04-17T00:03:24.451Z,33.09
2023-04-17T00:04:23.989Z,33.70
2023-04-17T00:05:24.557Z,34.40
2023-04-17T00:06:23.531Z,35.79
2023-04-17T00:07:23.462Z,36
2023-04-17T00:08:23.769Z,34
2023-04-17T00:09:23.608Z,37.79
2023-04-17T00:10:23.585Z,33.40
2023-04-17T00:11:24.281Z,38.20
2023-04-17T00:12:23.818Z,36.70
2023-04-17T00:13:23.668Z,36.79
2023-04-17T00:14:23.531Z,40.20
2023-04-17T00:15:23.931Z,40.70
2023-04-17T00:16:23.545Z,38.79
2023-04-17T00:17:24.553Z,37.79
2023-04-17T00:18:24.489Z,38.59
2023-04-17T00:19:23.907Z,39.09
2023-04-17T00:20:24.206Z,39.40
2023-04-17T00:21:23.700Z,36.20
2023-04-17T00:22:23.556Z,39.59
2023-04-17T00:23:23.745Z,39.40
2023-04-17T00:24:23.427Z,39.90
2023-04-17T00:25:23.760Z,38.29
2023-04-17T00:26:23.909Z,43.09
2023-04-17T00:27:24.060Z,43.20
2023-04-17T00:28:23.912Z,41.29
2023-04-17T00:29:23.488Z,39.09
2023-04-17T00:30:24.296Z,38.09
2023-04-17T00:31:23.560Z,36.90
2023-04-17T00:32:20.759Z,44.20
2023-04-17T00:34:23.733Z,39.09
2023-04-17T00:35:22.157Z,39.59
2023-04-17T00:41:23.293Z,42.70
2023-04-17T00:42:24.159Z,43.20
2023-04-17T00:43:24.351Z,41.90
2023-04-17T00:44:23.768Z,39.29
2023-04-17T00:45:24.303Z,38.29
2023-04-17T00:46:24.080Z,35.90
2023-04-17T00:47:23.625Z,40.09
2023-04-17T00:48:23.614Z,46.5
2023-04-17T00:49:23.100Z,46.90
2023-04-17T00:50:23.943Z,51.5
2023-04-17T00:51:23.695Z,51.70
2023-04-17T00:52:23.526Z,46.90
2023-04-17T00:53:23.600Z,47.5
2023-04-17T00:54:23.778Z,49.70
2023-04-17T00:55:24.288Z,46.90
2023-04-17T00:56:23.913Z,51.79
2023-04-17T00:57:23.783Z,49.29
2023-04-17T00:58:23.632Z,55
2023-04-17T00:59:23.676Z,50.20
2023-04-17T01:00:24.902Z,47.70
2023-04-17T01:01:23.900Z,51.70
2023-04-17T01:02:23.916Z,49.90
2023-04-17T01:03:24.205Z,55.20
2023-04-17T01:04:24.053Z,49.29
2023-04-17T01:05:24.114Z,50.70
2023-04-17T01:06:23.519Z,52.70
2023-04-17T01:07:23.769Z,50.40
2023-04-17T01:08:23.736Z,58.59
2023-04-17T01:09:23.959Z,59.40
2023-04-17T01:10:24.535Z,56.29
2023-04-17T01:11:23.356Z,54.20
2023-04-17T01:12:23.836Z,58.20
2023-04-17T01:13:23.785Z,59.59
2023-04-17T01:14:24.025Z,53.20
2023-04-17T01:15:24.449Z,55
2023-04-17T01:16:23.528Z,53
2023-04-17T01:17:24.052Z,48.20
2023-04-17T01:18:23.857Z,51
2023-04-17T01:19:23.876Z,56.20
2023-04-17T01:20:23.881Z,57.90
2023-04-17T01:21:23.839Z,52
2023-04-17T01:22:24.085Z,50.29
2023-04-17T01:23:23.660Z,54.70
2023-04-17T01:24:24.332Z,55.79
2023-04-17T01:25:23.786Z,61.79
2023-04-17T01:26:23.349Z,65.80
2023-04-17T01:27:23.907Z,57.29
2023-04-17T01:28:23.549Z,53.90
2023-04-17T01:29:23.792Z,56.5
2023-04-17T01:30:24.183Z,57.79
2023-04-17T01:31:23.961Z,59.09
2023-04-17T01:32:23.938Z,51.59
2023-04-17T01:33:23.552Z,59.40
2023-04-17T01:34:23.997Z,57
2023-04-17T01:35:24.547Z,55.5
2023-04-17T01:36:23.334Z,56.40
2023-04-17T01:37:23.269Z,54.5
2023-04-17T01:38:23.847Z,54.40
2023-04-17T01:39:29.118Z,57.40
2023-04-17T01:41:27.045Z,56.5
2023-04-17T01:42:23.748Z,52.20
2023-04-17T01:43:28.603Z,58.40
2023-04-17T01:44:23.650Z,54.20
2023-04-17T01:45:24.133Z,56
2023-04-17T01:46:23.398Z,55.90
2023-04-17T01:47:24.140Z,59.90
2023-04-17T01:48:23.465Z,53.59
2023-04-17T01:49:23.684Z,58.20
2023-04-17T01:50:24.124Z,55.59
2023-04-17T01:51:23.755Z,57.40
2023-04-17T01:52:23.656Z,52.40
2023-04-17T01:53:23.890Z,55.70
2023-04-17T01:54:24.008Z,52.40
2023-04-17T01:55:24.086Z,55.70
2023-04-17T01:56:24.199Z,59.40
2023-04-17T01:57:23.605Z,54.40
2023-04-17T01:58:23.761Z,57.20
2023-04-17T01:59:38.052Z,54.79
2023-04-17T02:00:25.267Z,54.59
2023-04-17T02:01:37.852Z,60.90
2023-04-17T02:02:23.727Z,54.40
2023-04-17T02:03:24.121Z,62.20
2023-04-17T02:04:23.678Z,58.20
2023-04-17T02:05:24.468Z,57
2023-04-17T02:06:24.134Z,57.5
2023-04-17T02:07:23.651Z,55.29
2023-04-17T02:08:23.993Z,54.70
2023-04-17T02:09:24.086Z,56.79
2023-04-17T02:10:23.869Z,57.70
2023-04-17T02:11:23.809Z,53.5
2023-04-17T02:12:23.741Z,54.20
2023-04-17T02:13:23.719Z,59.5
2023-04-17T02:14:23.560Z,60.29
2023-04-17T02:15:23.711Z,57.5
2023-04-17T02:16:23.901Z,58.40
2023-04-17T02:17:23.882Z,56.40
2023-04-17T02:18:23.692Z,58.70
2023-04-17T02:19:23.411Z,56
2023-04-17T02:20:23.568Z,58.5
2023-04-17T02:21:23.301Z,61.79
2023-04-17T02:22:23.257Z,58.59
2023-04-17T02:23:23.999Z,59
2023-04-17T02:24:23.586Z,56.59
2023-04-17T02:25:23.473Z,61.20
2023-04-17T02:26:23.468Z,64
2023-04-17T02:27:23.548Z,59.59
2023-04-17T02:28:23.515Z,59.29
2023-04-17T02:29:23.118Z,59.09
2023-04-17T02:30:24.011Z,58.29
2023-04-17T02:31:24.019Z,59.20
2023-04-17T02:32:24.006Z,56.40
2023-04-17T02:33:23.964Z,57
2023-04-17T02:34:23.632Z,54.5
2023-04-17T02:35:24.053Z,55.90
2023-04-17T02:36:24.073Z,52.90
2023-04-17T02:37:24.526Z,57.70
2023-04-17T02:38:23.673Z,52.5
2023-04-17T02:39:23.654Z,53.70
2023-04-17T02:40:23.897Z,52.90
2023-04-17T02:41:24.211Z,56.20
2023-04-17T02:42:23.926Z,53.40
2023-04-17T02:43:24.465Z,57.79
2023-04-17T02:44:23.704Z,48.59
2023-04-17T02:45:24.560Z,56
2023-04-17T02:46:23.862Z,55.5
2023-04-17T02:47:24.187Z,48.70
2023-04-17T02:48:23.939Z,58.79
2023-04-17T02:49:23.945Z,51.70
2023-04-17T02:50:24.500Z,48.79
2023-04-17T02:51:24.107Z,48.40
2023-04-17T02:52:23.340Z,52.29
2023-04-17T02:53:23.436Z,55.29
2023-04-17T02:54:23.798Z,56.40
2023-04-17T02:55:24.165Z,54.40
2023-04-17T02:56:23.451Z,56
2023-04-17T02:57:23.692Z,56.59
2023-04-17T02:58:23.807Z,61.40
2023-04-17T02:59:23.960Z,61.90
2023-04-17T03:00:25.069Z,53.59
2023-04-17T03:01:23.895Z,58.20
2023-04-17T03:02:23.621Z,61.29
2023-04-17T03:03:24.556Z,55.29
2023-04-17T03:04:23.791Z,55.40
2023-04-17T03:06:27.776Z,59.5
2023-04-17T03:07:23.314Z,53.90
2023-04-17T03:08:23.782Z,55.20
2023-04-17T03:09:23.485Z,58
2023-04-17T03:10:23.644Z,54.70
2023-04-17T03:11:23.577Z,58.40
2023-04-17T03:12:23.463Z,57.20
2023-04-17T03:13:23.868Z,58.59
2023-04-17T03:14:23.434Z,57.09
2023-04-17T03:15:23.980Z,53.59
2023-04-17T03:16:23.937Z,66
2023-04-17T03:17:23.572Z,57.09
2023-04-17T03:18:23.299Z,61.40
2023-04-17T03:19:23.795Z,58.5
2023-04-17T03:20:24.210Z,56.20
2023-04-17T03:21:23.751Z,50.40
2023-04-17T03:22:23.788Z,55.70
2023-04-17T03:23:23.851Z,51.5
2023-04-17T03:24:23.831Z,58.59
2023-04-17T03:25:23.925Z,56.5
2023-04-17T03:26:23.657Z,57.90
2023-04-17T03:27:23.804Z,53.5
2023-04-17T03:28:23.895Z,52.90
2023-04-17T03:29:23.660Z,51.5
2023-04-17T03:30:23.870Z,54.20
2023-04-17T03:31:24.425Z,53.29
2023-04-17T03:32:23.364Z,52.70
2023-04-17T03:33:23.741Z,55.90
2023-04-17T03:34:23.474Z,60.40
2023-04-17T03:35:24.100Z,57.40
2023-04-17T03:36:24.440Z,63
2023-04-17T03:37:23.939Z,54.70
2023-04-17T03:38:23.875Z,53
2023-04-17T03:39:23.898Z,53.40
2023-04-17T03:40:24.008Z,52.20
2023-04-17T03:41:24.123Z,55.29
2023-04-17T03:42:23.504Z,52.20
2023-04-17T03:43:23.497Z,55.59
2023-04-17T03:44:23.963Z,56.59
2023-04-17T03:45:24.110Z,52.40
2023-04-17T03:46:23.787Z,56.90
2023-04-17T03:47:24.263Z,59
2023-04-17T03:48:23.291Z,59.90
2023-04-17T03:49:23.468Z,65.30
2023-04-17T03:50:24.208Z,52.79
2023-04-17T03:51:24.105Z,59.09
2023-04-17T03:52:23.860Z,52.70
2023-04-17T03:53:24.096Z,53.09
2023-04-17T03:54:23.648Z,57.70
2023-04-17T03:55:23.917Z,59.09
2023-04-17T03:56:23.996Z,61
2023-04-17T03:57:24.072Z,59.20
2023-04-17T03:58:24.178Z,55.5
2023-04-17T03:59:23.947Z,57.70
2023-04-17T04:00:24.636Z,56.70
2023-04-17T04:01:23.709Z,54.59
2023-04-17T04:02:23.722Z,55.09
2023-04-17T04:03:24.491Z,58
2023-04-17T04:04:24.606Z,54.40
2023-04-17T04:05:23.841Z,57.5
2023-04-17T04:06:23.936Z,61.40
2023-04-17T04:07:24.141Z,54
2023-04-17T04:08:24.055Z,56.5
2023-04-17T04:09:24.402Z,54.59
2023-04-17T04:10:23.459Z,57.29
2023-04-17T04:11:23.653Z,53.79
2023-04-17T04:12:23.795Z,54.79
2023-04-17T04:13:23.501Z,52.40
2023-04-17T04:14:23.983Z,54.29
2023-04-17T04:15:24.065Z,55.29
2023-04-17T04:16:23.558Z,50.79
2023-04-17T04:17:23.481Z,60.29
2023-04-17T04:18:23.618Z,62.70
2023-04-17T04:19:23.520Z,52.5
2023-04-17T04:20:23.993Z,51.29
2023-04-17T04:21:23.891Z,54.59
2023-04-17T04:22:23.724Z,54
2023-04-17T04:23:23.804Z,53.79
2023-04-17T04:24:23.978Z,51.59
2023-04-17T04:25:24.781Z,53.5
2023-04-17T04:26:24.298Z,51.20
2023-04-17T04:27:23.853Z,53.09
2023-04-17T04:28:24.364Z,55.40
2023-04-17T04:29:24.093Z,57.59
2023-04-17T04:30:38.878Z,56.5
2023-04-17T04:31:25.251Z,54.40
2023-04-17T04:32:23.473Z,57.09
2023-04-17T04:33:23.921Z,54.70
2023-04-17T04:34:24.109Z,54.5
2023-04-17T04:35:23.788Z,57.59
2023-04-17T04:36:24.058Z,59.29
2023-04-17T04:37:23.558Z,55
2023-04-17T04:38:23.907Z,56.79
2023-04-17T04:40:23.778Z,52.20
2023-04-17T04:41:24.157Z,57.59
2023-04-17T04:42:24.034Z,53.90
2023-04-17T04:43:24.324Z,51.70
2023-04-17T04:44:24.293Z,54.59
2023-04-17T04:45:24.872Z,52.59
2023-04-17T04:46:24.688Z,60.90
2023-04-17T04:47:23.783Z,54.59
2023-04-17T04:48:24.721Z,51.90
2023-04-17T04:49:24.250Z,55.79
2023-04-17T04:50:24.374Z,56.40
2023-04-17T04:51:24.117Z,55.09
2023-04-17T04:52:24.136Z,62.40
2023-04-17T04:53:24.376Z,64.09
2023-04-17T04:55:24.018Z,68
2023-04-17T04:56:23.894Z,59.29
2023-04-17T04:57:24.008Z,60.79
2023-04-17T04:58:23.527Z,58
2023-04-17T04:59:24.200Z,52.40
2023-04-17T05:00:24.462Z,59.70
2023-04-17T05:01:23.845Z,64.5
2023-04-17T05:02:23.389Z,57.79
2023-04-17T05:03:23.593Z,60.70
2023-04-17T05:04:24.211Z,55.90
2023-04-17T05:05:23.960Z,59
2023-04-17T05:06:24.111Z,61.5
2023-04-17T05:07:23.985Z,61.59
2023-04-17T05:08:24.201Z,59.40
2023-04-17T05:09:23.762Z,59
2023-04-17T05:10:24.631Z,61.59
2023-04-17T05:11:24.140Z,57.09
2023-04-17T05:12:24.121Z,60
2023-04-17T05:13:24.370Z,61.90
2023-04-17T05:14:23.787Z,63.59
2023-04-17T05:15:24.852Z,60.20
2023-04-17T05:16:24.362Z,61.59
2023-04-17T05:17:24.079Z,59.29
2023-04-17T05:18:24.441Z,60.90
2023-04-17T05:19:24.276Z,60.79
2023-04-17T05:20:24.047Z,55.70
2023-04-17T05:21:24.681Z,56.59
2023-04-17T05:22:24.301Z,59.29
2023-04-17T05:23:23.977Z,57.70
2023-04-17T05:24:24.331Z,59.20
2023-04-17T05:25:24.173Z,62.29
2023-04-17T05:26:24.437Z,62.59
2023-04-17T05:27:24.157Z,63
2023-04-17T05:28:23.576Z,63.29
2023-04-17T05:29:24.170Z,59.90
2023-04-17T05:30:24.132Z,57.59
2023-04-17T05:31:23.884Z,58.59
2023-04-17T05:32:23.655Z,56
2023-04-17T05:33:24.114Z,58.59
2023-04-17T05:34:24.250Z,63.79
2023-04-17T05:35:24.281Z,62.90
2023-04-17T05:36:24.272Z,57.40
2023-04-17T05:37:23.642Z,59.40
2023-04-17T05:38:24.032Z,59.70
2023-04-17T05:39:24.613Z,57.90
2023-04-17T05:40:24.579Z,56.5
2023-04-17T05:41:23.501Z,61.5
2023-04-17T05:42:23.744Z,66.30
2023-04-17T05:43:24.161Z,64.69
2023-04-17T05:44:23.306Z,59.20
2023-04-17T05:45:25.548Z,62.70
2023-04-17T05:46:23.934Z,63.79
2023-04-17T05:47:23.521Z,59.70
2023-04-17T05:48:24.328Z,65
2023-04-17T05:49:24.127Z,63
2023-04-17T05:50:23.597Z,58.79
2023-04-17T05:51:24.704Z,64.90
2023-04-17T05:52:24.581Z,63
2023-04-17T05:53:24.473Z,61.5
2023-04-17T05:54:24.128Z,59.29
2023-04-17T05:55:23.794Z,59.5
2023-04-17T05:56:24.055Z,64.80
2023-04-17T05:57:24.292Z,62.79
2023-04-17T05:58:24.629Z,63.20
2023-04-17T05:59:24.033Z,59.09
2023-04-17T06:00:24.523Z,67
2023-04-17T06:01:23.862Z,59.70
2023-04-17T06:02:23.713Z,60.79
2023-04-17T06:03:24.475Z,62.40
2023-04-17T06:04:24.300Z,59.29
2023-04-17T06:05:25.028Z,61.09
2023-04-17T06:06:23.408Z,61.70
2023-04-17T06:07:23.386Z,60.70
2023-04-17T06:08:23.872Z,60.29
2023-04-17T06:09:25.723Z,63.40
2023-04-17T06:10:24.121Z,64.80
2023-04-17T06:11:23.531Z,56.5
2023-04-17T06:12:23.855Z,56.70
2023-04-17T06:13:23.952Z,56.09
2023-04-17T06:14:23.650Z,53.70
2023-04-17T06:15:24.371Z,59.90
2023-04-17T06:16:23.895Z,56.40
2023-04-17T06:17:24.093Z,58.79
2023-04-17T06:18:23.762Z,56.29
2023-04-17T06:19:24.607Z,54.29
2023-04-17T06:20:23.888Z,52
2023-04-17T06:21:23.761Z,51.79
2023-04-17T06:22:24.470Z,56.70
2023-04-17T06:23:23.528Z,54.70
2023-04-17T06:24:23.609Z,62.90
2023-04-17T06:25:23.994Z,55.29
2023-04-17T06:26:23.488Z,61.79
2023-04-17T06:27:24.196Z,58.90
2023-04-17T06:29:24.634Z,54.09
2023-04-17T06:30:24.578Z,56.70
2023-04-17T06:31:24.039Z,55.59
2023-04-17T06:32:24.411Z,56.79
2023-04-17T06:33:26.532Z,51.90
2023-04-17T06:34:23.759Z,53.29
2023-04-17T06:35:23.951Z,54.70
2023-04-17T06:36:24.177Z,56.90
2023-04-17T06:37:24.148Z,55.79
2023-04-17T06:38:24.364Z,56.29
2023-04-17T06:39:24.286Z,52.5
2023-04-17T06:40:24.052Z,51.79
2023-04-17T06:41:23.925Z,51
2023-04-17T06:42:24.434Z,51.90
2023-04-17T06:43:23.902Z,54.5
2023-04-17T06:44:24.003Z,52.79
2023-04-17T06:45:24.371Z,56.59
2023-04-17T06:46:23.894Z,54.90
2023-04-17T06:47:24.543Z,53.20
2023-04-17T06:48:23.849Z,52.5
2023-04-17T06:49:24.291Z,49.59
2023-04-17T06:50:23.866Z,54.09
2023-04-17T06:51:24.206Z,52.40
2023-04-17T06:52:23.713Z,52.70
2023-04-17T06:53:24.348Z,56.40
2023-04-17T06:54:24.129Z,52.70
2023-04-17T06:55:38.177Z,53.29
2023-04-17T06:56:23.568Z,53.70
2023-04-17T06:57:23.998Z,53.59
2023-04-17T06:58:24.096Z,47.29
2023-04-17T06:59:24.123Z,48
2023-04-17T07:00:25.147Z,53.5
2023-04-17T07:01:38.320Z,52.59
2023-04-17T07:02:24.351Z,51.09
2023-04-17T07:03:23.854Z,46.29
2023-04-17T07:04:23.975Z,47.90
2023-04-17T07:05:24.572Z,52.79
2023-04-17T07:06:24.159Z,48.29
2023-04-17T07:07:23.584Z,52.59
2023-04-17T07:08:23.895Z,48.90
2023-04-17T07:09:24.319Z,46.5
2023-04-17T07:10:23.841Z,48
2023-04-17T07:11:23.998Z,50.59
2023-04-17T07:12:24.170Z,46.09
2023-04-17T07:13:24.165Z,46.59
2023-04-17T07:14:24.084Z,46.70
2023-04-17T07:15:44.110Z,46.40
2023-04-17T07:16:23.924Z,46.59
2023-04-17T07:17:23.919Z,48.79
2023-04-17T07:18:23.896Z,44
2023-04-17T07:19:24.171Z,43.59
2023-04-17T07:20:24.356Z,47.5
2023-04-17T07:21:23.552Z,44.29
2023-04-17T07:22:26.650Z,47.70
2023-04-17T07:23:23.584Z,45
2023-04-17T07:24:24.004Z,43.20
2023-04-17T07:25:23.772Z,41.40
2023-04-17T07:26:24.169Z,42.90
2023-04-17T07:27:24.087Z,42.29
2023-04-17T07:28:23.487Z,42.40
2023-04-17T07:29:24.372Z,40.5
2023-04-17T07:30:24.976Z,41.79
2023-04-17T07:31:24.229Z,41.09
2023-04-17T07:32:24.154Z,41.70
2023-04-17T07:33:23.736Z,40.29
2023-04-17T07:34:23.998Z,43.09
2023-04-17T07:35:24.350Z,41.09
2023-04-17T07:36:23.597Z,38.90
2023-04-17T07:37:24.069Z,40.29
2023-04-17T07:38:23.908Z,42.29
2023-04-17T07:39:23.844Z,36.29
2023-04-17T07:40:24.852Z,39.20
2023-04-17T07:41:24.082Z,38.20
2023-04-17T07:42:23.396Z,39.5
2023-04-17T07:43:23.490Z,39.09
2023-04-17T07:44:23.979Z,40.70
2023-04-17T07:45:23.908Z,42.40
2023-04-17T07:46:23.776Z,40.20
2023-04-17T07:47:23.647Z,36.5
2023-04-17T07:48:24.300Z,39.40
2023-04-17T07:49:23.345Z,38.29
2023-04-17T07:50:24.363Z,37.59
2023-04-17T07:51:23.765Z,37.29
2023-04-17T07:52:23.944Z,36.29
2023-04-17T07:53:24.060Z,36.5
2023-04-17T07:54:24.303Z,34.5
2023-04-17T07:55:24.138Z,38.29
2023-04-17T07:56:24.224Z,35.90
2023-04-17T07:57:23.582Z,36.09
2023-04-17T07:58:23.725Z,36.59
2023-04-17T07:59:23.879Z,35.79
2023-04-17T08:00:25.225Z,38.29
2023-04-17T08:01:24.344Z,33.70
2023-04-17T08:02:24.086Z,37.5
2023-04-17T08:03:23.757Z,34
2023-04-17T08:04:23.975Z,32.90
2023-04-17T08:05:23.777Z,36.29
2023-04-17T08:06:24.381Z,34.09
2023-04-17T08:07:23.489Z,32.79
2023-04-17T08:08:23.973Z,34.59
2023-04-17T08:09:23.930Z,34
2023-04-17T08:10:25.241Z,34.79
2023-04-17T08:11:23.805Z,34.70
2023-04-17T08:12:23.605Z,33.79
2023-04-17T08:13:24.235Z,33
2023-04-17T08:14:24.383Z,32.40
2023-04-17T08:15:24.132Z,33.79
2023-04-17T08:16:24.067Z,33.90
2023-04-17T08:17:23.455Z,33.70
2023-04-17T08:18:24.019Z,34.29
2023-04-17T08:19:24.128Z,31.10
2023-04-17T08:20:24.141Z,30.70
2023-04-17T08:22:24.049Z,33.70
2023-04-17T08:23:23.348Z,30.79
2023-04-17T08:24:23.426Z,32.59
2023-04-17T08:25:23.716Z,31.70
2023-04-17T08:26:23.843Z,32
2023-04-17T08:27:24.198Z,30.39
2023-04-17T08:28:23.875Z,34.20
2023-04-17T08:29:23.764Z,32.29
2023-04-17T08:30:24.487Z,31.29
2023-04-17T08:31:23.869Z,32.29
2023-04-17T08:32:23.961Z,29.89
2023-04-17T08:33:24.256Z,32.79
2023-04-17T08:34:23.755Z,30.79
2023-04-17T08:35:24.779Z,30.89
2023-04-17T08:36:24.145Z,30.60
2023-04-17T08:37:23.354Z,31.39
2023-04-17T08:38:23.719Z,30.10
2023-04-17T08:39:24.313Z,30.79
2023-04-17T08:40:24.322Z,32.59
2023-04-17T08:41:24.316Z,32.40
2023-04-17T08:42:23.687Z,30.29
2023-04-17T08:43:24.250Z,31.60
2023-04-17T08:44:23.738Z,32.29
2023-04-17T08:45:24.382Z,30.10
2023-04-17T08:46:24.506Z,30.20
2023-04-17T08:47:23.880Z,34
2023-04-17T08:48:24.400Z,34.59
2023-04-17T08:49:23.808Z,31.39
2023-04-17T08:50:24.048Z,31.29
2023-04-17T08:51:24.028Z,34.59
2023-04-17T08:52:23.650Z,33.70
2023-04-17T08:53:23.716Z,34.40
2023-04-17T08:54:23.954Z,32.5
2023-04-17T08:55:23.999Z,35.5
2023-04-17T08:56:24.386Z,32.59
2023-04-17T08:57:23.729Z,29.29
2023-04-17T08:58:24.119Z,29.89
2023-04-17T08:59:23.930Z,30.70
2023-04-17T09:00:25.329Z,35.79
2023-04-17T09:01:24.077Z,30.5
2023-04-17T09:02:29.491Z,29.10
2023-04-17T09:03:24.633Z,31.29
2023-04-17T09:04:24.633Z,32.59
2023-04-17T09:05:23.693Z,37
2023-04-17T09:06:24.057Z,30.60
2023-04-17T09:07:23.964Z,32.59
2023-04-17T09:08:23.908Z,34.90
2023-04-17T09:09:23.605Z,33.5
2023-04-17T09:10:24.945Z,35.40
2023-04-17T09:11:24.462Z,33.70
2023-04-17T09:12:31.782Z,34.5
2023-04-17T09:13:24.068Z,35
2023-04-17T09:14:25.070Z,35.59
2023-04-17T09:16:24.088Z,36.5
2023-04-17T09:17:24.691Z,40
2023-04-17T09:18:24.775Z,36
2023-04-17T09:20:24.427Z,36.40
2023-04-17T09:21:23.940Z,35.29
2023-04-17T09:22:38.456Z,35.79
2023-04-17T09:23:23.511Z,36.90
2023-04-17T09:24:37.992Z,36.09
2023-04-17T09:25:24.492Z,33.79
2023-04-17T09:26:23.739Z,34.70
2023-04-17T09:27:24.080Z,34.09
2023-04-17T09:28:23.715Z,34.59
2023-04-17T09:29:24.271Z,34.70
2023-04-17T09:30:43.048Z,34.29
2023-04-17T09:31:23.960Z,37.90
2023-04-17T09:32:23.927Z,31.79
2023-04-17T09:33:23.844Z,33.5
2023-04-17T09:34:24.292Z,35.20
2023-04-17T09:35:23.750Z,34.59
2023-04-17T09:36:23.734Z,31.5
2023-04-17T09:37:23.955Z,36.40
2023-04-17T09:38:24.046Z,34.5
2023-04-17T09:39:24.302Z,33.29
2023-04-17T09:40:24.058Z,34
2023-04-17T09:41:24.433Z,32
2023-04-17T09:42:23.870Z,33.40
2023-04-17T09:43:23.562Z,34.09
2023-04-17T09:44:24.098Z,32.70
2023-04-17T09:45:24.076Z,32.79
2023-04-17T09:46:23.678Z,33.29
2023-04-17T09:47:23.652Z,32.90
2023-04-17T09:48:24.370Z,31.70
2023-04-17T09:49:23.724Z,33.5
2023-04-17T09:50:24.191Z,30.70
2023-04-17T09:51:23.836Z,28.60
2023-04-17T09:52:24.271Z,29.89
2023-04-17T09:53:23.504Z,30.5
2023-04-17T09:54:23.770Z,29.5
2023-04-17T09:55:24.229Z,27.79
2023-04-17T09:56:23.499Z,27.20
2023-04-17T09:57:23.689Z,28.10
2023-04-17T09:58:23.896Z,26.89
2023-04-17T09:59:23.511Z,27
2023-04-17T10:00:25.009Z,28.20
2023-04-17T10:01:23.835Z,26.70
2023-04-17T10:02:24.193Z,26.79
2023-04-17T10:03:24.718Z,25.39
2023-04-17T10:04:23.867Z,27.20
2023-04-17T10:05:23.714Z,24.70
2023-04-17T10:06:23.927Z,25
2023-04-17T10:07:24.064Z,23.89
2023-04-17T10:08:23.589Z,24
2023-04-17T10:09:23.787Z,25.70
2023-04-17T10:10:24.328Z,20.79
2023-04-17T10:11:24.137Z,22.20
2023-04-17T10:12:23.400Z,21.20
2023-04-17T10:13:23.680Z,20.10
2023-04-17T10:14:23.962Z,18.20
2023-04-17T10:15:24.419Z,19.10
2023-04-17T10:16:23.461Z,16.5
2023-04-17T10:17:23.540Z,17.89
2023-04-17T10:18:24.818Z,17.70
2023-04-17T10:19:24.253Z,16.20
2023-04-17T10:20:23.916Z,18.5
2023-04-17T10:21:23.803Z,15.69
2023-04-17T10:22:23.735Z,16
2023-04-17T10:23:25.156Z,15.69
2023-04-17T10:24:24.440Z,16.70
2023-04-17T10:25:23.882Z,16.10
2023-04-17T10:26:23.930Z,17.60
2023-04-17T10:27:23.537Z,15.80
2023-04-17T10:28:23.823Z,15.30
2023-04-17T10:29:24.119Z,15.69
2023-04-17T10:30:24.300Z,15.30
2023-04-17T10:31:23.877Z,15.89
2023-04-17T10:32:24.657Z,14.89
2023-04-17T10:33:24.320Z,16.89
2023-04-17T10:34:23.783Z,16
2023-04-17T10:35:24.498Z,14.10
2023-04-17T10:36:23.847Z,14.19
2023-04-17T10:37:24.209Z,14.5
2023-04-17T10:38:23.749Z,13
2023-04-17T10:39:23.921Z,16.39
2023-04-17T10:40:23.670Z,15.10
2023-04-17T10:41:24.264Z,15.69
2023-04-17T10:42:23.982Z,14.30
2023-04-17T10:43:24.489Z,21.29
2023-04-17T10:44:24.748Z,22.39
2023-04-17T10:45:24.077Z,22.29
2023-04-17T10:46:23.920Z,20.79
2023-04-17T10:47:24.424Z,20.70
2023-04-17T10:48:23.909Z,21.39
2023-04-17T10:49:23.716Z,19.70
2023-04-17T10:50:24.027Z,20.70
2023-04-17T10:51:24.593Z,20.10
2023-04-17T10:52:23.951Z,19.70
2023-04-17T10:53:24.016Z,20.70
2023-04-17T10:54:24.167Z,20.20
2023-04-17T10:55:23.931Z,22
2023-04-17T10:56:23.628Z,22.10
2023-04-17T10:57:23.919Z,20.29
2023-04-17T10:58:31.472Z,21.70
2023-04-17T10:59:23.602Z,22.5
2023-04-17T11:01:29.234Z,20
2023-04-17T11:02:24.016Z,18.89
2023-04-17T11:03:24.239Z,21
2023-04-17T11:04:23.923Z,22
2023-04-17T11:05:24.122Z,20.20
2023-04-17T11:06:23.741Z,19.39
2023-04-17T11:07:24.074Z,18.79
2023-04-17T11:08:23.847Z,19
2023-04-17T11:09:24.263Z,20.89
2023-04-17T11:10:23.682Z,21.39
2023-04-17T11:11:35.228Z,19.60
2023-04-17T11:12:24.421Z,20.10
2023-04-17T11:13:23.542Z,20.5
2023-04-17T11:14:23.858Z,22.60
2023-04-17T11:15:24.337Z,18.70
2023-04-17T11:16:23.337Z,19.89
2023-04-17T11:17:23.541Z,16.79
2023-04-17T11:18:23.742Z,19.20
2023-04-17T11:19:24.100Z,20.39
2023-04-17T11:20:24.179Z,17.39
2023-04-17T11:21:23.832Z,17.60
2023-04-17T11:22:24.369Z,17.10
2023-04-17T11:23:23.597Z,17.70
2023-04-17T11:24:24.059Z,16.39
2023-04-17T11:25:23.949Z,18.10
2023-04-17T11:26:24.470Z,18.29
2023-04-17T11:27:23.840Z,17.10
2023-04-17T11:28:23.760Z,18.60
2023-04-17T11:29:24.283Z,15
2023-04-17T11:30:23.991Z,16.39
2023-04-17T11:31:23.888Z,15.30
2023-04-17T11:32:24.022Z,16.60
2023-04-17T11:33:23.834Z,17.20
2023-04-17T11:34:23.511Z,14.60
2023-04-17T11:36:23.633Z,16.10
2023-04-17T11:37:24.404Z,15.39
2023-04-17T11:38:24.211Z,15
2023-04-17T11:39:23.614Z,14.89
2023-04-17T11:40:23.587Z,14.60
2023-04-17T11:41:38.510Z,15.30
2023-04-17T11:42:24.215Z,13.89
2023-04-17T11:43:37.540Z,14.19
2023-04-17T11:44:23.545Z,15.39
2023-04-17T11:45:24.573Z,16.5
2023-04-17T11:46:24.082Z,15.30
2023-04-17T11:47:23.736Z,14.80
2023-04-17T11:48:24.535Z,12.89
2023-04-17T11:49:23.920Z,15.30
2023-04-17T11:50:23.796Z,14.69
2023-04-17T11:51:24.190Z,15.60
2023-04-17T11:52:23.556Z,16
2023-04-17T11:53:23.813Z,15.10
2023-04-17T11:54:24.151Z,16.29
2023-04-17T11:55:23.787Z,15.10
2023-04-17T11:56:24.061Z,13.39
2023-04-17T11:57:23.797Z,13.19
2023-04-17T11:58:23.853Z,13
2023-04-17T11:59:24.521Z,12.80
2023-04-17T12:00:24.877Z,13.5
2023-04-17T12:01:23.987Z,14.69
2023-04-17T12:02:23.970Z,13.19
2023-04-17T12:03:24.003Z,14.19
2023-04-17T12:04:24.566Z,14.10
2023-04-17T12:05:24.568Z,12.69
2023-04-17T12:06:24.052Z,14.10
2023-04-17T12:07:24.167Z,13.60
2023-04-17T12:09:23.598Z,11.89
2023-04-17T12:10:24.553Z,11.80
2023-04-17T12:11:45.984Z,13.5
2023-04-17T12:12:24.238Z,12.5
2023-04-17T12:13:23.895Z,13
2023-04-17T12:14:25.170Z,10.30
2023-04-17T12:15:23.604Z,11.30
2023-04-17T12:16:24.242Z,11.10
2023-04-17T12:17:23.937Z,11
2023-04-17T12:18:23.602Z,11.5
2023-04-17T12:19:23.859Z,9.800
2023-04-17T12:20:26.098Z,11
2023-04-17T12:21:23.997Z,10
2023-04-17T12:22:23.852Z,10.89
2023-04-17T12:24:27.031Z,9.800
2023-04-17T12:25:24.307Z,12
2023-04-17T12:26:23.774Z,9.100
2023-04-17T12:27:24.094Z,11.39
2023-04-17T12:28:23.799Z,9.899
2023-04-17T12:30:24.601Z,9.199
2023-04-17T12:31:24.277Z,10.30
2023-04-17T12:32:24.796Z,11.19
2023-04-17T12:33:24.230Z,10.69
2023-04-17T12:34:24.907Z,10
2023-04-17T12:35:24.103Z,9.100
2023-04-17T12:36:24.940Z,9.5
2023-04-17T12:37:23.806Z,8.699
2023-04-17T12:39:24.901Z,8.300
2023-04-17T12:40:24.956Z,10
2023-04-17T12:41:24.394Z,10.80
2023-04-17T12:42:24.158Z,10.10
2023-04-17T12:43:24.185Z,9.199
2023-04-17T12:44:23.984Z,8.800
2023-04-17T12:45:24.670Z,10.10
2023-04-17T12:46:24.360Z,7.800
2023-04-17T12:47:24.127Z,8.800
2023-04-17T12:48:24.113Z,9.600
2023-04-17T12:49:23.913Z,9.100
2023-04-17T12:50:24.919Z,10.19
2023-04-17T12:51:23.925Z,9
2023-04-17T12:52:24.749Z,9.300
2023-04-17T12:53:24.280Z,9.100
2023-04-17T12:54:24.119Z,10.69
2023-04-17T12:55:24.421Z,8.600
2023-04-17T12:56:24.279Z,9.199
2023-04-17T12:57:23.981Z,9.600
2023-04-17T12:58:23.775Z,7.699
2023-04-17T12:59:24.239Z,7.300
2023-04-17T13:00:24.688Z,8.399
2023-04-17T13:01:23.785Z,8.300
2023-04-17T13:02:24.389Z,9.300
2023-04-17T13:03:24.213Z,9.5
2023-04-17T13:04:24.282Z,8.399
2023-04-17T13:05:24.495Z,9.399
2023-04-17T13:06:24.579Z,7.900
2023-04-17T13:07:24.049Z,7.099
2023-04-17T13:08:23.825Z,7.5
2023-04-17T13:09:23.694Z,9.600
2023-04-17T13:10:24.583Z,9.699
2023-04-17T13:11:23.755Z,7.5
2023-04-17T13:12:24.436Z,9.100
2023-04-17T13:13:23.694Z,8.300
2023-04-17T13:14:24.199Z,8.800
2023-04-17T13:15:23.803Z,7.400
2023-04-17T13:16:23.543Z,8.600
2023-04-17T13:17:23.931Z,7.199
2023-04-17T13:18:23.661Z,8.800
2023-04-17T13:19:24.086Z,7.900
2023-04-17T13:20:25.182Z,7.300
2023-04-17T13:21:24.166Z,11.10
2023-04-17T13:22:24.746Z,11.80